Time;durP1;ratioP1;P1;durP2;ratioP2;P2;SDS_P1;SDS_P2;PMS_P1;PMS_P2;Temp;Humidity;BMP_temperature;BMP_pressure;BME280_temperature;BME280_humidity;BME280_pressure;Samples;Min_cycle;Max_cycle;Signal;HPM_P1;HPM_P2
2023/09/06 00:01:05;;;;;;;8.13;5.40;;;;;;;;;;5118850;27;20047;-60
2023/09/06 00:03:32;;;;;;;12.07;5.60;;;;;;;;;;5133035;27;20058;-60
2023/09/06 00:05:59;;;;;;;7.05;4.90;;;;;;;;;;5104538;27;20052;-61
2023/09/06 00:08:26;;;;;;;8.35;5.15;;;;;;;;;;5103607;27;20892;-60
2023/09/06 00:10:53;;;;;;;8.68;5.65;;;;;;;;;;5132020;27;20051;-60
2023/09/06 00:13:20;;;;;;;8.38;4.80;;;;;;;;;;5113757;27;20051;-59
2023/09/06 00:15:47;;;;;;;5.80;4.80;;;;;;;;;;5127468;27;20104;-60
2023/09/06 00:18:13;;;;;;;6.90;4.53;;;;;;;;;;5143653;27;20051;-59
2023/09/06 00:20:40;;;;;;;6.03;4.35;;;;;;;;;;5111020;27;20052;-61
2023/09/06 00:23:09;;;;;;;6.68;4.97;;;;;;;;;;5130755;27;20047;-59
2023/09/06 00:25:36;;;;;;;6.22;5.13;;;;;;;;;;5130427;27;20477;-60
2023/09/06 00:28:04;;;;;;;6.05;5.28;;;;;;;;;;5136449;27;20589;-58
2023/09/06 00:30:30;;;;;;;6.68;5.18;;;;;;;;;;5118827;27;20079;-60
2023/09/06 00:32:58;;;;;;;7.78;4.82;;;;;;;;;;5137802;27;20055;-61
2023/09/06 00:35:26;;;;;;;6.75;4.53;;;;;;;;;;5126030;27;20163;-58
2023/09/06 00:37:53;;;;;;;7.82;5.22;;;;;;;;;;5126754;27;20059;-59
2023/09/06 00:40:21;;;;;;;4.80;4.30;;;;;;;;;;5115243;27;20460;-57
2023/09/06 00:42:48;;;;;;;5.65;4.80;;;;;;;;;;5124339;27;20051;-61
2023/09/06 00:45:15;;;;;;;9.10;4.88;;;;;;;;;;5120540;27;20139;-56
2023/09/06 00:47:42;;;;;;;5.70;4.68;;;;;;;;;;5124636;27;20124;-61
2023/09/06 00:50:14;;;;;;;5.20;4.30;;;;;;;;;;5126921;27;20144;-60
2023/09/06 00:52:41;;;;;;;5.30;4.55;;;;;;;;;;5139472;27;20051;-60
2023/09/06 00:55:08;;;;;;;6.85;4.38;;;;;;;;;;5146663;27;20055;-60
2023/09/06 00:57:35;;;;;;;8.70;4.28;;;;;;;;;;5129951;27;20052;-60
2023/09/06 01:00:05;;;;;;;5.32;4.72;;;;;;;;;;5143803;27;20571;-59
2023/09/06 01:02:32;;;;;;;9.07;4.45;;;;;;;;;;5122415;27;20059;-61
2023/09/06 01:04:58;;;;;;;7.20;4.63;;;;;;;;;;5129201;27;20062;-60
2023/09/06 01:07:27;;;;;;;5.85;5.25;;;;;;;;;;5126561;27;20050;-60
2023/09/06 01:09:54;;;;;;;7.50;4.65;;;;;;;;;;5126545;27;20428;-61
2023/09/06 01:12:20;;;;;;;6.05;4.78;;;;;;;;;;5139820;27;20047;-60
2023/09/06 01:14:47;;;;;;;9.63;5.30;;;;;;;;;;5141839;27;20490;-61
2023/09/06 01:17:16;;;;;;;6.32;4.20;;;;;;;;;;5130689;27;20178;-60
2023/09/06 01:19:44;;;;;;;6.25;4.70;;;;;;;;;;5120099;27;20052;-60
2023/09/06 01:22:11;;;;;;;6.28;4.47;;;;;;;;;;5120446;27;20142;-57
2023/09/06 01:24:38;;;;;;;6.32;5.15;;;;;;;;;;5120358;27;20117;-60
2023/09/06 01:27:05;;;;;;;5.72;5.00;;;;;;;;;;5106956;28;20113;-57
2023/09/06 01:29:31;;;;;;;7.10;4.50;;;;;;;;;;5110893;27;20460;-60
2023/09/06 01:31:58;;;;;;;6.38;4.43;;;;;;;;;;5124625;27;20051;-58
2023/09/06 01:34:24;;;;;;;5.80;4.65;;;;;;;;;;5128746;27;20163;-59
2023/09/06 01:36:51;;;;;;;6.95;4.47;;;;;;;;;;5106371;27;20055;-60
2023/09/06 01:39:17;;;;;;;6.72;4.90;;;;;;;;;;5115647;27;20354;-58
2023/09/06 01:41:43;;;;;;;8.18;4.47;;;;;;;;;;5121479;27;20055;-61
2023/09/06 01:44:10;;;;;;;6.15;4.50;;;;;;;;;;5144583;27;20513;-60
2023/09/06 01:46:36;;;;;;;5.07;4.57;;;;;;;;;;5145588;27;20540;-58
2023/09/06 01:49:03;;;;;;;6.13;4.68;;;;;;;;;;5115590;27;20047;-60
2023/09/06 01:51:31;;;;;;;6.40;4.13;;;;;;;;;;5132929;27;20051;-59
2023/09/06 01:53:57;;;;;;;8.00;5.07;;;;;;;;;;5144886;27;20562;-60
2023/09/06 01:56:24;;;;;;;7.15;4.72;;;;;;;;;;5146187;27;20081;-60
2023/09/06 01:58:50;;;;;;;6.35;4.38;;;;;;;;;;5146782;27;20138;-56
2023/09/06 02:01:16;;;;;;;9.38;4.47;;;;;;;;;;5128465;27;20052;-60
2023/09/06 02:03:43;;;;;;;6.10;4.18;;;;;;;;;;5117482;27;20055;-60
2023/09/06 02:06:09;;;;;;;6.90;3.97;;;;;;;;;;5142489;27;20105;-60
2023/09/06 02:08:36;;;;;;;6.55;4.30;;;;;;;;;;5145262;27;20495;-60
2023/09/06 02:11:02;;;;;;;4.97;4.47;;;;;;;;;;5128851;27;20078;-58
2023/09/06 02:13:29;;;;;;;8.07;4.68;;;;;;;;;;5123639;27;20101;-60
2023/09/06 02:15:56;;;;;;;9.80;5.03;;;;;;;;;;5123802;27;20139;-58
2023/09/06 02:18:24;;;;;;;6.50;4.10;;;;;;;;;;5125285;27;20978;-60
2023/09/06 02:20:50;;;;;;;5.47;4.28;;;;;;;;;;5110140;27;20506;-60
2023/09/06 02:23:17;;;;;;;5.68;5.07;;;;;;;;;;5105352;27;20060;-60
2023/09/06 02:25:44;;;;;;;4.38;3.97;;;;;;;;;;5133081;27;20063;-60
2023/09/06 02:28:10;;;;;;;7.13;5.07;;;;;;;;;;5146495;27;20166;-60
2023/09/06 02:30:37;;;;;;;5.28;4.57;;;;;;;;;;5131724;27;20549;-61
2023/09/06 02:33:04;;;;;;;5.47;4.13;;;;;;;;;;5134984;27;20047;-56
2023/09/06 02:35:40;;;;;;;8.02;4.82;;;;;;;;;;5146104;27;20508;-60
2023/09/06 02:38:12;;;;;;;5.93;5.32;;;;;;;;;;5115810;27;20060;-61
2023/09/06 02:40:42;;;;;;;6.85;5.40;;;;;;;;;;5105437;27;20542;-57
2023/09/06 02:43:10;;;;;;;6.00;4.72;;;;;;;;;;5117379;27;20061;-61
2023/09/06 02:45:37;;;;;;;5.97;5.05;;;;;;;;;;5134455;27;20509;-60
2023/09/06 02:48:11;;;;;;;9.38;4.93;;;;;;;;;;5147100;27;20051;-57
2023/09/06 02:50:40;;;;;;;6.70;4.57;;;;;;;;;;5125160;27;20189;-59
2023/09/06 02:53:19;;;;;;;8.65;4.95;;;;;;;;;;5117921;27;20054;-59
2023/09/06 02:55:47;;;;;;;5.35;4.80;;;;;;;;;;5129056;27;20062;-61
2023/09/06 02:58:15;;;;;;;6.72;4.82;;;;;;;;;;5128190;27;20128;-60
2023/09/06 03:00:43;;;;;;;7.57;5.18;;;;;;;;;;5120868;27;20048;-60
2023/09/06 03:03:10;;;;;;;7.05;5.07;;;;;;;;;;5112989;27;20059;-57
2023/09/06 03:05:42;;;;;;;5.70;4.55;;;;;;;;;;5137993;27;20138;-59
2023/09/06 03:08:09;;;;;;;9.32;5.47;;;;;;;;;;5128188;27;20551;-59
2023/09/06 03:10:36;;;;;;;7.68;5.03;;;;;;;;;;5124162;27;20535;-57
2023/09/06 03:13:05;;;;;;;6.40;5.55;;;;;;;;;;5114520;27;20052;-60
2023/09/06 03:15:32;;;;;;;5.70;4.93;;;;;;;;;;5105369;27;20105;-58
2023/09/06 03:17:58;;;;;;;7.00;4.97;;;;;;;;;;5095535;27;20108;-58
2023/09/06 03:20:42;;;;;;;5.75;5.00;;;;;;;;;;5146087;27;20051;-60
2023/09/06 03:23:19;;;;;;;6.65;5.70;;;;;;;;;;5114438;27;20055;-60
2023/09/06 03:25:47;;;;;;;5.90;5.32;;;;;;;;;;5144775;27;20062;-59
2023/09/06 03:28:18;;;;;;;6.07;4.97;;;;;;;;;;5126421;27;20106;-60
2023/09/06 03:30:45;;;;;;;7.65;5.13;;;;;;;;;;5117554;27;20494;-60
2023/09/06 03:33:12;;;;;;;6.82;5.10;;;;;;;;;;5127308;27;20059;-60
2023/09/06 03:35:38;;;;;;;5.97;5.13;;;;;;;;;;5144785;27;20058;-61
2023/09/06 03:38:26;;;;;;;6.90;5.20;;;;;;;;;;5108864;27;20129;-60
2023/09/06 03:40:52;;;;;;;6.38;5.25;;;;;;;;;;5109996;27;20047;-61
2023/09/06 03:43:30;;;;;;;7.57;4.47;;;;;;;;;;5124763;27;20655;-60
2023/09/06 03:45:58;;;;;;;6.78;5.05;;;;;;;;;;5139843;27;20128;-60
2023/09/06 03:48:27;;;;;;;6.32;5.25;;;;;;;;;;5124303;27;20055;-60
2023/09/06 03:50:55;;;;;;;6.00;5.05;;;;;;;;;;5121330;27;20179;-59
2023/09/06 03:53:25;;;;;;;5.57;4.65;;;;;;;;;;5107290;27;20049;-60
2023/09/06 03:55:57;;;;;;;6.45;5.35;;;;;;;;;;5142151;27;20516;-60
2023/09/06 03:58:24;;;;;;;6.78;5.40;;;;;;;;;;5138954;27;20147;-60
2023/09/06 04:00:52;;;;;;;6.53;5.30;;;;;;;;;;5122903;27;20048;-61
2023/09/06 04:03:19;;;;;;;6.53;5.35;;;;;;;;;;5123801;27;20518;-60
2023/09/06 04:05:46;;;;;;;6.00;5.40;;;;;;;;;;5128853;27;20062;-60
2023/09/06 04:08:18;;;;;;;5.93;5.35;;;;;;;;;;5134171;27;20055;-60
2023/09/06 04:10:45;;;;;;;6.68;5.45;;;;;;;;;;5123502;27;20059;-60
2023/09/06 04:13:12;;;;;;;6.88;5.30;;;;;;;;;;5117861;27;20052;-60
2023/09/06 04:15:40;;;;;;;6.18;5.57;;;;;;;;;;5116277;27;20148;-59
2023/09/06 04:18:07;;;;;;;5.90;5.35;;;;;;;;;;5141282;27;20082;-56
2023/09/06 04:20:37;;;;;;;7.68;4.72;;;;;;;;;;5143629;27;20079;-61
2023/09/06 04:23:05;;;;;;;5.80;5.20;;;;;;;;;;5132319;27;20505;-59
2023/09/06 04:25:41;;;;;;;8.02;6.28;;;;;;;;;;5123875;27;20056;-59
2023/09/06 04:28:09;;;;;;;6.50;5.57;;;;;;;;;;5119504;27;20109;-59
2023/09/06 04:30:36;;;;;;;7.65;5.25;;;;;;;;;;5121589;27;20552;-55
2023/09/06 04:33:04;;;;;;;6.30;5.38;;;;;;;;;;5144411;27;20075;-60
2023/09/06 04:35:43;;;;;;;7.72;5.57;;;;;;;;;;5138612;27;20080;-59
2023/09/06 04:38:14;;;;;;;8.05;5.63;;;;;;;;;;5132814;27;20162;-58
2023/09/06 04:40:44;;;;;;;6.22;5.63;;;;;;;;;;5125210;27;20048;-59
2023/09/06 04:43:12;;;;;;;8.50;5.20;;;;;;;;;;5123414;27;20052;-60
2023/09/06 04:45:38;;;;;;;7.20;5.53;;;;;;;;;;5122766;27;20048;-59
2023/09/06 04:48:08;;;;;;;9.45;5.93;;;;;;;;;;5112954;27;20086;-58
2023/09/06 04:50:39;;;;;;;8.55;5.90;;;;;;;;;;5142250;27;20051;-57
2023/09/06 04:53:07;;;;;;;9.90;5.72;;;;;;;;;;5144603;27;20051;-58
2023/09/06 04:55:37;;;;;;;5.72;5.20;;;;;;;;;;5140154;27;20058;-59
2023/09/06 04:58:07;;;;;;;7.90;5.28;;;;;;;;;;5131323;27;20138;-60
2023/09/06 05:00:41;;;;;;;9.13;5.50;;;;;;;;;;5122602;27;20047;-60
2023/09/06 05:03:10;;;;;;;8.35;5.88;;;;;;;;;;5123399;27;20051;-58
2023/09/06 05:05:37;;;;;;;7.50;5.63;;;;;;;;;;5123199;27;20082;-60
2023/09/06 05:08:04;;;;;;;7.30;5.40;;;;;;;;;;5105700;27;20047;-56
2023/09/06 05:10:31;;;;;;;7.32;5.68;;;;;;;;;;5124284;27;20116;-60
2023/09/06 05:12:58;;;;;;;7.30;5.63;;;;;;;;;;5119232;27;20078;-59
2023/09/06 05:15:24;;;;;;;7.00;5.85;;;;;;;;;;5123263;27;20050;-60
2023/09/06 05:17:50;;;;;;;12.88;5.63;;;;;;;;;;5117897;27;20052;-59
2023/09/06 05:20:33;;;;;;;6.80;5.57;;;;;;;;;;5114184;27;20048;-60
2023/09/06 05:23:01;;;;;;;6.63;5.20;;;;;;;;;;5125893;27;20163;-61
2023/09/06 05:25:28;;;;;;;6.95;5.95;;;;;;;;;;5112293;27;20052;-59
2023/09/06 05:27:57;;;;;;;9.25;5.78;;;;;;;;;;5108021;27;20558;-60
2023/09/06 05:30:24;;;;;;;7.70;6.15;;;;;;;;;;5106599;28;20052;-61
2023/09/06 05:32:51;;;;;;;11.55;6.07;;;;;;;;;;5112000;27;20051;-61
2023/09/06 05:35:17;;;;;;;7.10;6.20;;;;;;;;;;5113917;27;20044;-60
2023/09/06 05:37:44;;;;;;;8.63;5.50;;;;;;;;;;5106413;27;20059;-61
2023/09/06 05:40:12;;;;;;;8.60;5.32;;;;;;;;;;5106192;28;20094;-59
2023/09/06 05:42:39;;;;;;;12.98;5.78;;;;;;;;;;5106186;28;20048;-60
2023/09/06 05:45:08;;;;;;;7.65;5.53;;;;;;;;;;5115168;27;20143;-58
2023/09/06 05:47:35;;;;;;;8.18;6.10;;;;;;;;;;5126837;27;20226;-57
2023/09/06 05:50:02;;;;;;;10.07;5.70;;;;;;;;;;5107636;27;20058;-61
2023/09/06 05:52:29;;;;;;;9.68;6.15;;;;;;;;;;5126364;27;20052;-61
2023/09/06 05:54:55;;;;;;;10.50;5.90;;;;;;;;;;5116766;27;20139;-59
2023/09/06 05:57:22;;;;;;;8.85;6.07;;;;;;;;;;5105974;28;20509;-61
2023/09/06 05:59:48;;;;;;;11.80;6.60;;;;;;;;;;5117486;27;20514;-60
2023/09/06 06:02:15;;;;;;;8.82;5.93;;;;;;;;;;5108205;27;20056;-60
2023/09/06 06:04:41;;;;;;;7.97;5.90;;;;;;;;;;5105641;28;20051;-54
2023/09/06 06:07:08;;;;;;;9.38;6.43;;;;;;;;;;5110916;27;20054;-59
2023/09/06 06:09:35;;;;;;;12.63;5.97;;;;;;;;;;5144229;27;20062;-57
2023/09/06 06:12:03;;;;;;;8.32;5.65;;;;;;;;;;5136102;27;20059;-59
2023/09/06 06:14:30;;;;;;;7.03;6.32;;;;;;;;;;5111816;27;20071;-59
2023/09/06 06:16:59;;;;;;;9.15;6.43;;;;;;;;;;5107156;27;20052;-56
2023/09/06 06:19:26;;;;;;;9.63;6.25;;;;;;;;;;5125839;27;20051;-57
2023/09/06 06:21:53;;;;;;;7.55;6.10;;;;;;;;;;5125733;27;20130;-59
2023/09/06 06:24:19;;;;;;;19.23;6.35;;;;;;;;;;5105171;27;20111;-59
2023/09/06 06:26:47;;;;;;;11.57;6.25;;;;;;;;;;5109220;27;20054;-60
2023/09/06 06:29:14;;;;;;;11.10;6.72;;;;;;;;;;5120925;27;20064;-58
2023/09/06 06:31:41;;;;;;;7.15;5.80;;;;;;;;;;5105414;28;20052;-58
2023/09/06 06:34:07;;;;;;;8.30;6.30;;;;;;;;;;5104810;27;20044;-58
2023/09/06 06:36:34;;;;;;;9.05;6.07;;;;;;;;;;5111943;27;20055;-59
2023/09/06 06:39:01;;;;;;;9.40;5.90;;;;;;;;;;5126388;27;20052;-59
2023/09/06 06:41:27;;;;;;;6.45;5.55;;;;;;;;;;5101327;27;20133;-60
2023/09/06 06:43:55;;;;;;;9.35;5.60;;;;;;;;;;5085433;28;20360;-59
2023/09/06 06:46:23;;;;;;;9.32;5.85;;;;;;;;;;5089140;27;20075;-59
2023/09/06 06:48:50;;;;;;;7.10;5.35;;;;;;;;;;5104380;27;20139;-59
2023/09/06 06:51:17;;;;;;;8.75;5.95;;;;;;;;;;5125624;27;20496;-59
2023/09/06 06:53:44;;;;;;;9.25;5.68;;;;;;;;;;5108925;27;20044;-61
2023/09/06 06:56:10;;;;;;;11.75;6.43;;;;;;;;;;5087216;28;20154;-61
2023/09/06 06:58:37;;;;;;;9.65;6.07;;;;;;;;;;5110004;27;20063;-58
2023/09/06 07:01:03;;;;;;;7.25;5.85;;;;;;;;;;5125711;27;20047;-60
2023/09/06 07:03:30;;;;;;;6.22;5.55;;;;;;;;;;5105354;27;20051;-56
2023/09/06 07:05:57;;;;;;;9.05;6.05;;;;;;;;;;5114447;27;20074;-59
2023/09/06 07:08:26;;;;;;;9.65;5.80;;;;;;;;;;5100259;28;20134;-59
2023/09/06 07:10:53;;;;;;;6.20;4.80;;;;;;;;;;5104350;28;20109;-60
2023/09/06 07:13:20;;;;;;;11.02;5.40;;;;;;;;;;5106320;27;20637;-58
2023/09/06 07:15:46;;;;;;;8.25;5.47;;;;;;;;;;5121929;27;20140;-60
2023/09/06 07:18:14;;;;;;;11.30;6.05;;;;;;;;;;5118457;27;20051;-60
2023/09/06 07:20:41;;;;;;;7.10;5.43;;;;;;;;;;5140989;27;20054;-60
2023/09/06 07:23:08;;;;;;;7.88;5.35;;;;;;;;;;5123272;27;20518;-59
2023/09/06 07:25:34;;;;;;;8.23;5.38;;;;;;;;;;5134227;27;20053;-54
2023/09/06 07:28:01;;;;;;;7.60;4.95;;;;;;;;;;5146028;27;20055;-59
2023/09/06 07:30:27;;;;;;;6.55;4.90;;;;;;;;;;5145993;27;20047;-60
2023/09/06 07:32:54;;;;;;;8.27;5.15;;;;;;;;;;5112130;27;20050;-56
2023/09/06 07:35:20;;;;;;;6.72;4.80;;;;;;;;;;5124088;27;20079;-60
2023/09/06 07:37:47;;;;;;;6.68;4.70;;;;;;;;;;5125071;27;20078;-61
2023/09/06 07:40:14;;;;;;;8.13;5.35;;;;;;;;;;5131323;27;20630;-61
2023/09/06 07:42:41;;;;;;;6.85;5.05;;;;;;;;;;5121124;27;20083;-61
2023/09/06 07:45:07;;;;;;;7.65;5.35;;;;;;;;;;5120439;27;20503;-58
2023/09/06 07:47:34;;;;;;;7.22;5.75;;;;;;;;;;5116909;27;20544;-58
2023/09/06 07:50:01;;;;;;;7.07;4.90;;;;;;;;;;5120429;27;20140;-58
2023/09/06 07:52:28;;;;;;;11.40;5.35;;;;;;;;;;5122263;27;20048;-60
2023/09/06 07:54:54;;;;;;;8.07;5.28;;;;;;;;;;5124073;27;20077;-60
2023/09/06 07:57:26;;;;;;;9.90;5.03;;;;;;;;;;5143329;27;20051;-60
2023/09/06 07:59:52;;;;;;;8.27;5.00;;;;;;;;;;5128364;27;20513;-60
2023/09/06 08:02:19;;;;;;;6.07;4.65;;;;;;;;;;5117750;27;20048;-58
2023/09/06 08:04:45;;;;;;;5.30;4.80;;;;;;;;;;5134154;27;20138;-59
2023/09/06 08:07:13;;;;;;;9.48;5.10;;;;;;;;;;5126317;27;20055;-59
2023/09/06 08:09:40;;;;;;;7.35;4.65;;;;;;;;;;5125445;27;20052;-59
2023/09/06 08:12:06;;;;;;;5.68;4.22;;;;;;;;;;5124002;27;20056;-60
2023/09/06 08:14:33;;;;;;;5.65;4.72;;;;;;;;;;5135450;27;20055;-60
2023/09/06 08:16:59;;;;;;;9.48;4.28;;;;;;;;;;5125091;27;20051;-58
2023/09/06 08:19:26;;;;;;;5.60;3.70;;;;;;;;;;5125386;27;20516;-60
2023/09/06 08:21:52;;;;;;;8.23;4.90;;;;;;;;;;5103447;27;20617;-60
2023/09/06 08:24:19;;;;;;;9.13;4.75;;;;;;;;;;5121792;27;20605;-58
2023/09/06 08:26:48;;;;;;;5.38;4.00;;;;;;;;;;5124146;27;20521;-59
2023/09/06 08:29:14;;;;;;;10.25;4.93;;;;;;;;;;5123207;27;20051;-60
2023/09/06 08:31:41;;;;;;;6.72;4.30;;;;;;;;;;5105265;27;20091;-59
2023/09/06 08:34:11;;;;;;;6.20;5.55;;;;;;;;;;5112936;27;20058;-60
2023/09/06 08:36:37;;;;;;;8.18;4.00;;;;;;;;;;5124127;27;20477;-60
2023/09/06 08:39:06;;;;;;;7.28;4.03;;;;;;;;;;5135150;27;20051;-60
2023/09/06 08:41:33;;;;;;;8.07;4.07;;;;;;;;;;5104338;28;20056;-59
2023/09/06 08:44:03;;;;;;;10.20;4.55;;;;;;;;;;5103688;27;20060;-59
2023/09/06 08:46:30;;;;;;;4.80;3.90;;;;;;;;;;5110569;27;20047;-59
2023/09/06 08:48:58;;;;;;;5.63;3.83;;;;;;;;;;5120824;27;20525;-59
2023/09/06 08:51:25;;;;;;;4.60;3.55;;;;;;;;;;5103803;28;20528;-60
2023/09/06 08:53:52;;;;;;;6.00;4.10;;;;;;;;;;5104484;27;20499;-59
2023/09/06 08:56:19;;;;;;;6.40;3.80;;;;;;;;;;5118538;27;20059;-60
2023/09/06 08:58:45;;;;;;;5.97;3.47;;;;;;;;;;5131401;27;20055;-57
2023/09/06 09:01:12;;;;;;;6.53;4.97;;;;;;;;;;5109914;27;20190;-60
2023/09/06 09:03:38;;;;;;;4.57;3.92;;;;;;;;;;5125064;27;20052;-59
2023/09/06 09:06:08;;;;;;;5.05;3.80;;;;;;;;;;5125630;27;20119;-57
2023/09/06 09:08:36;;;;;;;7.35;4.03;;;;;;;;;;5118206;27;20055;-60
2023/09/06 09:11:15;;;;;;;5.57;3.92;;;;;;;;;;5143176;27;20142;-55
2023/09/06 09:13:42;;;;;;;5.57;4.15;;;;;;;;;;5138685;27;20059;-58
2023/09/06 09:16:09;;;;;;;6.25;4.70;;;;;;;;;;5106745;28;20067;-59
2023/09/06 09:18:36;;;;;;;7.88;4.22;;;;;;;;;;5106773;28;20133;-59
2023/09/06 09:21:03;;;;;;;4.82;3.55;;;;;;;;;;5107300;28;20048;-59
2023/09/06 09:23:31;;;;;;;4.57;3.78;;;;;;;;;;5136666;27;20146;-60
2023/09/06 09:25:58;;;;;;;5.35;3.50;;;;;;;;;;5147850;27;20047;-59
2023/09/06 09:28:24;;;;;;;5.10;4.15;;;;;;;;;;5124686;27;20059;-60
2023/09/06 09:30:51;;;;;;;5.63;4.20;;;;;;;;;;5124675;27;20306;-61
2023/09/06 09:33:18;;;;;;;5.57;3.80;;;;;;;;;;5137664;27;20048;-58
2023/09/06 09:35:46;;;;;;;8.50;4.07;;;;;;;;;;5148296;27;20051;-58
2023/09/06 09:38:12;;;;;;;7.68;3.53;;;;;;;;;;5143428;27;20138;-61
2023/09/06 09:40:39;;;;;;;5.70;3.63;;;;;;;;;;5107925;27;20143;-58
2023/09/06 09:43:08;;;;;;;5.57;3.75;;;;;;;;;;5125667;27;20208;-60
2023/09/06 09:45:40;;;;;;;5.40;3.28;;;;;;;;;;5126962;27;20043;-57
2023/09/06 09:48:07;;;;;;;4.90;4.03;;;;;;;;;;5122884;27;20055;-60
2023/09/06 09:50:34;;;;;;;6.57;3.85;;;;;;;;;;5107347;27;20048;-59
2023/09/06 09:53:07;;;;;;;6.03;3.70;;;;;;;;;;5106608;28;20059;-57
2023/09/06 09:55:47;;;;;;;3.95;3.25;;;;;;;;;;5123706;27;20135;-60
2023/09/06 09:58:15;;;;;;;7.35;3.80;;;;;;;;;;5127086;27;20137;-60
2023/09/06 10:00:42;;;;;;;8.27;3.53;;;;;;;;;;5119804;27;20051;-61
2023/09/06 10:03:09;;;;;;;7.35;3.97;;;;;;;;;;5146757;27;20051;-60
2023/09/06 10:05:36;;;;;;;6.22;3.63;;;;;;;;;;5133590;27;20059;-58
2023/09/06 10:08:04;;;;;;;6.30;3.92;;;;;;;;;;5126052;27;20411;-59
2023/09/06 10:10:32;;;;;;;5.80;3.83;;;;;;;;;;5143641;27;20051;-61
2023/09/06 10:13:06;;;;;;;8.55;4.10;;;;;;;;;;5119461;27;20052;-58
2023/09/06 10:15:34;;;;;;;6.93;4.63;;;;;;;;;;5131814;27;20092;-60
2023/09/06 10:18:01;;;;;;;6.18;4.00;;;;;;;;;;5144811;27;20051;-58
2023/09/06 10:20:30;;;;;;;10.65;3.83;;;;;;;;;;5145257;27;20586;-60
2023/09/06 10:22:57;;;;;;;10.30;3.42;;;;;;;;;;5134914;27;20146;-59
2023/09/06 10:25:25;;;;;;;5.40;3.35;;;;;;;;;;5123887;27;20039;-61
2023/09/06 10:27:53;;;;;;;3.92;3.17;;;;;;;;;;5118815;27;20140;-60
2023/09/06 10:30:40;;;;;;;9.52;2.90;;;;;;;;;;5126565;27;20048;-60
2023/09/06 10:33:08;;;;;;;11.18;3.13;;;;;;;;;;5129062;27;20047;-60
2023/09/06 10:35:41;;;;;;;3.08;2.60;;;;;;;;;;5108411;27;20059;-59
2023/09/06 10:38:11;;;;;;;3.88;2.40;;;;;;;;;;5105208;27;20166;-60
2023/09/06 10:41:04;;;;;;;5.03;2.78;;;;;;;;;;5123862;27;20052;-56
2023/09/06 10:43:43;;;;;;;5.93;3.03;;;;;;;;;;5127215;27;20594;-58
2023/09/06 10:46:09;;;;;;;4.85;3.03;;;;;;;;;;5126730;27;20078;-58
2023/09/06 10:48:36;;;;;;;5.68;2.45;;;;;;;;;;5124724;27;20150;-58
2023/09/06 10:51:03;;;;;;;5.55;2.75;;;;;;;;;;5126524;27;20611;-57
2023/09/06 10:53:30;;;;;;;2.88;2.28;;;;;;;;;;5126449;27;20517;-57
2023/09/06 10:55:58;;;;;;;3.13;2.10;;;;;;;;;;5119285;27;20571;-59
2023/09/06 10:58:24;;;;;;;3.05;2.03;;;;;;;;;;5105344;28;20133;-59
2023/09/06 11:01:14;;;;;;;5.45;2.40;;;;;;;;;;5104761;28;20538;-59
2023/09/06 11:03:41;;;;;;;2.83;2.22;;;;;;;;;;5111026;27;20052;-57
2023/09/06 11:06:09;;;;;;;3.20;2.30;;;;;;;;;;5102176;27;20603;-62
2023/09/06 11:08:38;;;;;;;2.90;2.50;;;;;;;;;;5123609;27;20047;-57
2023/09/06 11:11:07;;;;;;;9.05;2.33;;;;;;;;;;5125250;27;20063;-58
2023/09/06 11:13:35;;;;;;;3.42;2.38;;;;;;;;;;5124063;27;20055;-59
2023/09/06 11:16:10;;;;;;;4.68;3.05;;;;;;;;;;5123896;27;20052;-57
2023/09/06 11:18:46;;;;;;;6.50;2.50;;;;;;;;;;5117348;27;20062;-58
2023/09/06 11:21:25;;;;;;;4.25;2.90;;;;;;;;;;5123606;27;20139;-58
2023/09/06 11:23:52;;;;;;;5.38;2.53;;;;;;;;;;5119201;27;20212;-58
2023/09/06 11:26:19;;;;;;;4.35;2.50;;;;;;;;;;5110878;27;20052;-58
2023/09/06 11:28:49;;;;;;;9.57;2.58;;;;;;;;;;5134113;27;20890;-59
2023/09/06 11:31:19;;;;;;;3.55;2.50;;;;;;;;;;5120860;27;20134;-58
2023/09/06 11:33:45;;;;;;;7.82;2.67;;;;;;;;;;5125610;27;20055;-58
2023/09/06 11:36:13;;;;;;;4.88;2.08;;;;;;;;;;5120908;27;20055;-58
2023/09/06 11:38:42;;;;;;;2.20;2.00;;;;;;;;;;5130118;27;20243;-57
2023/09/06 11:41:11;;;;;;;6.00;2.17;;;;;;;;;;5123995;27;20048;-58
2023/09/06 11:43:42;;;;;;;2.92;2.20;;;;;;;;;;5131890;27;20087;-59
2023/09/06 11:46:11;;;;;;;4.63;2.00;;;;;;;;;;5100623;27;20934;-57
2023/09/06 11:48:39;;;;;;;2.28;2.08;;;;;;;;;;5131394;27;20129;-60
2023/09/06 11:51:11;;;;;;;7.38;2.58;;;;;;;;;;5143772;27;20048;-57
2023/09/06 11:53:40;;;;;;;4.88;2.38;;;;;;;;;;5122372;27;20056;-59
2023/09/06 11:56:08;;;;;;;4.10;2.28;;;;;;;;;;5119251;27;20052;-59
2023/09/06 11:58:42;;;;;;;6.10;2.13;;;;;;;;;;5106481;27;20113;-59
2023/09/06 12:01:11;;;;;;;5.97;2.55;;;;;;;;;;5124266;27;20093;-60
2023/09/06 12:03:44;;;;;;;2.80;2.20;;;;;;;;;;5122841;27;20051;-60
2023/09/06 12:06:12;;;;;;;5.43;2.33;;;;;;;;;;5123833;27;20328;-60
2023/09/06 12:08:39;;;;;;;4.13;2.10;;;;;;;;;;5123415;27;20059;-59
2023/09/06 12:11:06;;;;;;;3.05;1.77;;;;;;;;;;5124454;27;20059;-60
2023/09/06 12:13:34;;;;;;;6.28;2.30;;;;;;;;;;5110659;27;20044;-60
2023/09/06 12:16:02;;;;;;;3.97;2.15;;;;;;;;;;5121390;27;20052;-60
2023/09/06 12:18:29;;;;;;;3.15;1.92;;;;;;;;;;5124123;27;20152;-59
2023/09/06 12:20:56;;;;;;;3.53;2.00;;;;;;;;;;5123285;27;20461;-58
2023/09/06 12:23:26;;;;;;;2.75;1.98;;;;;;;;;;5123634;27;20059;-59
2023/09/06 12:25:52;;;;;;;2.08;1.85;;;;;;;;;;5124018;27;20051;-60
2023/09/06 12:28:19;;;;;;;1.88;1.70;;;;;;;;;;5123372;27;20568;-57
2023/09/06 12:30:45;;;;;;;3.67;2.28;;;;;;;;;;5125183;27;20597;-58
2023/09/06 12:33:14;;;;;;;3.70;2.05;;;;;;;;;;5127617;27;20095;-58
2023/09/06 12:35:41;;;;;;;2.35;1.85;;;;;;;;;;5127504;27;20205;-57
2023/09/06 12:38:08;;;;;;;2.28;1.77;;;;;;;;;;5120677;27;20080;-59
2023/09/06 12:40:34;;;;;;;2.47;2.03;;;;;;;;;;5122539;27;20058;-56
2023/09/06 12:43:01;;;;;;;2.50;2.17;;;;;;;;;;5125885;27;20063;-59
2023/09/06 12:45:30;;;;;;;2.75;2.05;;;;;;;;;;5127669;27;20588;-59
2023/09/06 12:47:58;;;;;;;3.08;1.70;;;;;;;;;;5124973;27;20058;-58
2023/09/06 12:50:25;;;;;;;1.98;1.80;;;;;;;;;;5125253;27;20136;-60
2023/09/06 12:52:52;;;;;;;8.40;2.03;;;;;;;;;;5116132;27;20051;-60
2023/09/06 12:55:19;;;;;;;3.58;1.83;;;;;;;;;;5136519;27;20051;-59
2023/09/06 12:57:48;;;;;;;3.70;2.00;;;;;;;;;;5126166;27;20052;-59
2023/09/06 13:00:15;;;;;;;2.70;1.98;;;;;;;;;;5126338;27;20135;-59
2023/09/06 13:02:41;;;;;;;2.88;2.22;;;;;;;;;;5126813;27;20062;-59
2023/09/06 13:05:08;;;;;;;3.55;2.08;;;;;;;;;;5126317;27;20083;-59
2023/09/06 13:07:36;;;;;;;2.78;2.35;;;;;;;;;;5132582;27;20598;-59
2023/09/06 13:10:03;;;;;;;2.90;2.42;;;;;;;;;;5125171;27;20056;-59
2023/09/06 13:12:34;;;;;;;7.60;2.38;;;;;;;;;;5125024;27;20795;-58
2023/09/06 13:15:01;;;;;;;2.80;1.95;;;;;;;;;;5126541;27;20116;-59
2023/09/06 13:17:27;;;;;;;3.63;1.80;;;;;;;;;;5114814;27;20051;-59
2023/09/06 13:19:54;;;;;;;2.80;2.10;;;;;;;;;;5126700;27;20052;-59
2023/09/06 13:22:21;;;;;;;3.38;2.05;;;;;;;;;;5121306;27;20582;-58
2023/09/06 13:24:48;;;;;;;4.55;2.05;;;;;;;;;;5125646;27;20056;-57
2023/09/06 13:27:15;;;;;;;2.25;1.90;;;;;;;;;;5130976;27;20063;-56
2023/09/06 13:29:41;;;;;;;3.08;1.95;;;;;;;;;;5126280;27;20600;-58
2023/09/06 13:32:08;;;;;;;2.75;1.95;;;;;;;;;;5126268;27;20047;-57
2023/09/06 13:34:36;;;;;;;2.92;2.00;;;;;;;;;;5126318;27;20051;-57
2023/09/06 13:37:04;;;;;;;3.30;2.00;;;;;;;;;;5111521;27;20051;-57
2023/09/06 13:39:31;;;;;;;4.63;2.47;;;;;;;;;;5127299;27;20054;-57
2023/09/06 13:42:00;;;;;;;2.75;2.08;;;;;;;;;;5124988;27;20079;-58
2023/09/06 13:44:30;;;;;;;4.35;2.20;;;;;;;;;;5126070;27;20059;-58
2023/09/06 13:47:00;;;;;;;7.18;2.28;;;;;;;;;;5125481;27;20055;-58
2023/09/06 13:49:27;;;;;;;5.07;1.98;;;;;;;;;;5108194;27;20056;-58
2023/09/06 13:51:53;;;;;;;4.78;2.13;;;;;;;;;;5126393;27;20056;-58
2023/09/06 13:54:20;;;;;;;2.80;1.95;;;;;;;;;;5115834;27;20048;-57
2023/09/06 13:56:49;;;;;;;4.85;2.10;;;;;;;;;;5128717;27;20077;-56
2023/09/06 13:59:20;;;;;;;6.03;2.30;;;;;;;;;;5134786;27;20085;-57
2023/09/06 14:01:47;;;;;;;2.65;2.00;;;;;;;;;;5126866;27;20079;-57
2023/09/06 14:04:14;;;;;;;3.15;1.80;;;;;;;;;;5117842;27;20102;-55
2023/09/06 14:06:42;;;;;;;4.20;1.98;;;;;;;;;;5121347;27;20044;-57
2023/09/06 14:09:10;;;;;;;2.58;2.33;;;;;;;;;;5125416;27;20584;-57
2023/09/06 14:11:37;;;;;;;6.05;2.20;;;;;;;;;;5125815;27;20147;-58
2023/09/06 14:14:04;;;;;;;4.47;2.22;;;;;;;;;;5140930;27;20148;-57
2023/09/06 14:16:31;;;;;;;4.95;2.30;;;;;;;;;;5131062;27;20052;-58
2023/09/06 14:18:58;;;;;;;2.80;2.15;;;;;;;;;;5119936;27;20110;-54
2023/09/06 14:21:24;;;;;;;3.28;2.17;;;;;;;;;;5117349;27;21718;-57
2023/09/06 14:23:51;;;;;;;3.55;2.00;;;;;;;;;;5135183;27;20063;-54
2023/09/06 14:26:18;;;;;;;6.50;2.72;;;;;;;;;;5131125;27;20047;-58
2023/09/06 14:28:44;;;;;;;3.20;2.17;;;;;;;;;;5132231;27;20055;-56
2023/09/06 14:31:11;;;;;;;5.70;2.90;;;;;;;;;;5139860;27;20063;-58
2023/09/06 14:33:38;;;;;;;4.05;2.22;;;;;;;;;;5123747;27;20113;-57
2023/09/06 14:36:07;;;;;;;3.97;1.85;;;;;;;;;;5124400;27;20108;-57
2023/09/06 14:38:33;;;;;;;2.92;2.10;;;;;;;;;;5123060;27;20056;-57
2023/09/06 14:41:00;;;;;;;3.80;2.00;;;;;;;;;;5124828;27;20563;-58
2023/09/06 14:43:27;;;;;;;5.90;2.35;;;;;;;;;;5101359;27;20048;-57
2023/09/06 14:46:02;;;;;;;3.00;2.28;;;;;;;;;;5123268;27;20044;-55
2023/09/06 14:48:29;;;;;;;5.97;2.80;;;;;;;;;;5122069;27;20062;-57